UB16 weather

Belokany Airport
Belokany, Balakan, Azerbaijan

Public forecast

Using degrees Celsius for public forecast. Weather courtesy of forecast.io.

Closest aviation weather report (METAR) to Belokany Airport

Closest report is Zaqatala International Airport, 17.4 nm (32.3 km) SE. Retrieved 2020/04/05 23:00 UTC (7 minutes ago):

UBBY 052300Z 14004KT 9999 SCT090 11/09 Q1021 R33/////// NOSIG RMK MT OP

Closest aviation forecast (TAF) to Belokany Airport

Forecast is more than 12 hours old.

Closest forecast is Zaqatala International Airport, 17.4 nm (32.3 km) SE. Retrieved 2017/05/25 03:00 UTC (3 years ago):

TAF UBBY 250200Z 2503/2512 VRB04KT 9999 SCT040 SCT080